Winston, MT (59647)

1:31 AM MST on February 12, 2016 (GMT -0700)
19 MWL | | Change Station
CLOSE
Current Station
Personal Weather Station
Location: Winston, MT
Elevation: 4472 ft
Nearby Weather Stations

Elev 4472 ft 46.47 °N, 111.67 °W | Updated 4 seconds ago

Overcast
Overcast
38.2 °F
Feels Like 38 °F
N
0.4
Wind Variable Wind from North
Gusts 1.8 mph

Today
High -- | Low -- °F
--% Chance of Precip.
Yesterday
High -- | Low -- °F
Precip. -- in
Pressure 30.30 in
Visibility 10.0 miles
Clouds Overcast 4900 ft
Windchill 38 °F
Dew Point 29 °F
Humidity 70%
Rainfall 0.00 in
Snow Depth Not available.
7:35 AM 5:47 PM
Waxing Crescent, 18% visible
METAR KHLN 120753Z AUTO 00000KT 10SM OVC049 03/M01 A3024 RMK AO2 SLP261 T00281006
Pressure 30.30 in
Visibility 10.0 miles
Clouds Overcast 4900 ft
Windchill 38 °F
Dew Point 29 °F
Humidity 70%
Rainfall 0.00 in
Snow Depth Not available.
7:35 AM 5:47 PM
Waxing Crescent, 18% visible
METAR KHLN 120753Z AUTO 00000KT 10SM OVC049 03/M01 A3024 RMK AO2 SLP261 T00281006

10-Day Weather Forecast

Almanac

Astronomy

Feb. 12, 2016 Rise Set
Actual Time
Civil Twilight
Nautical Twilight
Astronomical Twilight
Moon
Length of Visible Light
Length of Day
Tomorrow will be .
, % of the Moon is Illuminated

Today's Extremes

State Highs State Lows

Community

WunderPhotos

Upload Photos

1,892,284 photos uploaded!

WunderBlog® & News

Nearby

Air Quality

  Air Quality AQ Index Pollutant
Not available.

Snow Depth

Station Depth Elevation

Earthquake Activity

City Distance Mag. Time & Date
Minimum magnitude displayed is 2.5.

Coastal Water Temperatures

Place Temperature

Stations

Nearby Weather Stations

Station Location Temp. Windchill Dew Point Humidity Wind Precip. Elev Updated Type
                   

Watches & Warnings

There are currently no watches in effect.